createdAt,value
2023-01-08T00:02:22.032Z,10.29
2023-01-08T00:06:26.439Z,10.34
2023-01-08T00:10:29.481Z,10.36
2023-01-08T00:14:32.525Z,10.33
2023-01-08T00:18:35.622Z,10.35
2023-01-08T00:22:39.999Z,10.43
2023-01-08T00:26:43.149Z,10.53
2023-01-08T00:30:46.225Z,10.53
2023-01-08T00:34:49.342Z,10.59
2023-01-08T00:38:53.710Z,10.61
2023-01-08T00:42:56.913Z,10.65
2023-01-08T00:46:59.951Z,10.68
2023-01-08T00:51:04.097Z,10.80
2023-01-08T00:55:09.772Z,10.80
2023-01-08T00:59:12.801Z,10.82
2023-01-08T01:03:15.948Z,10.86
2023-01-08T01:07:18.959Z,10.84
2023-01-08T01:11:25.200Z,10.81
2023-01-08T01:15:28.236Z,10.86
2023-01-08T01:19:31.448Z,10.83
2023-01-08T01:23:34.467Z,10.87
2023-01-08T01:27:39.068Z,10.91
2023-01-08T01:31:42.107Z,10.93
2023-01-08T01:35:45.129Z,10.93
2023-01-08T01:39:48.209Z,11.05
2023-01-08T01:43:53.260Z,11.06
2023-01-08T01:48:00.821Z,11.04
2023-01-08T01:52:06.807Z,10.98
2023-01-08T01:56:10.366Z,11.03
2023-01-08T02:00:15.708Z,11.08
2023-01-08T02:04:18.778Z,11.08
2023-01-08T02:08:29.378Z,11.05
2023-01-08T02:12:37.209Z,11.04
2023-01-08T02:16:48.699Z,11.03
2023-01-08T02:20:57.132Z,11.00
2023-01-08T02:25:09.610Z,11.01
2023-01-08T02:29:17.644Z,10.96
2023-01-08T02:33:20.726Z,10.94
2023-01-08T02:37:23.984Z,10.97
2023-01-08T02:41:37.779Z,10.98
2023-01-08T02:45:47.382Z,10.94
2023-01-08T02:49:55.270Z,10.94
2023-01-08T02:54:01.501Z,10.94
2023-01-08T02:58:05.820Z,10.91
2023-01-08T03:02:11.815Z,10.88
2023-01-08T03:06:19.121Z,10.84
2023-01-08T03:10:26.395Z,10.88
2023-01-08T03:14:33.757Z,10.88
2023-01-08T03:18:45.409Z,10.91
2023-01-08T03:22:52.780Z,10.88
2023-01-08T03:26:59.948Z,10.83
2023-01-08T03:31:04.406Z,10.85
2023-01-08T03:35:11.049Z,10.84
2023-01-08T03:39:18.118Z,10.79
2023-01-08T03:43:21.171Z,10.86
2023-01-08T03:47:25.754Z,10.91
2023-01-08T03:51:30.151Z,10.90
2023-01-08T03:55:33.221Z,10.96
2023-01-08T03:59:36.245Z,10.94
2023-01-08T04:03:39.270Z,10.97
2023-01-08T04:07:43.719Z,10.92
2023-01-08T04:11:46.766Z,10.93
2023-01-08T04:15:50.403Z,10.93
2023-01-08T04:19:53.543Z,10.94
2023-01-08T04:23:58.456Z,10.91
2023-01-08T04:28:01.486Z,10.86
2023-01-08T04:32:04.748Z,10.86
2023-01-08T04:36:08.077Z,10.81
2023-01-08T04:40:12.931Z,10.85
2023-01-08T04:44:16.019Z,10.84
2023-01-08T04:48:19.072Z,10.79
2023-01-08T04:52:22.130Z,10.79
2023-01-08T04:56:26.818Z,10.77
2023-01-08T05:00:29.884Z,10.76
2023-01-08T05:04:33.070Z,10.64
2023-01-08T05:08:36.565Z,10.60
2023-01-08T05:12:40.921Z,10.46
2023-01-08T05:16:44.081Z,10.46
2023-01-08T05:20:47.223Z,10.56
2023-01-08T05:24:50.284Z,10.54
2023-01-08T05:28:54.862Z,10.57
2023-01-08T05:32:57.935Z,10.64
2023-01-08T05:37:00.942Z,10.57
2023-01-08T05:41:04.209Z,10.54
2023-01-08T05:45:09.778Z,10.54
2023-01-08T05:49:12.873Z,10.54
2023-01-08T05:53:15.954Z,9.33
2023-01-08T05:57:18.956Z,8.52
2023-01-08T06:01:23.421Z,8.30
2023-01-08T06:05:26.567Z,8.17
2023-01-08T06:09:29.627Z,8.09
2023-01-08T06:13:32.965Z,8.04
2023-01-08T06:17:37.376Z,8.02
2023-01-08T06:21:40.419Z,7.92
2023-01-08T06:25:43.429Z,7.83
2023-01-08T06:29:46.511Z,7.82
2023-01-08T06:33:50.877Z,7.75
2023-01-08T06:37:55.927Z,7.75
2023-01-08T06:41:59.079Z,7.80
2023-01-08T06:46:02.089Z,7.81
2023-01-08T06:50:07.106Z,7.82
2023-01-08T06:54:11.587Z,7.80
2023-01-08T06:58:16.473Z,7.82
2023-01-08T07:02:20.210Z,7.80
2023-01-08T07:06:25.218Z,7.81
2023-01-08T07:10:28.347Z,7.78
2023-01-08T07:14:31.367Z,7.78
2023-01-08T07:18:34.488Z,7.78
2023-01-08T07:22:38.922Z,7.76
2023-01-08T07:26:42.100Z,7.79
2023-01-08T07:30:45.173Z,7.88
2023-01-08T07:34:48.366Z,7.87
2023-01-08T07:38:52.771Z,7.89
2023-01-08T07:42:59.753Z,7.87
2023-01-08T07:47:02.796Z,7.87
2023-01-08T07:51:07.874Z,7.93
2023-01-08T07:55:12.410Z,7.93
2023-01-08T07:59:15.465Z,7.90
2023-01-08T08:03:18.636Z,7.88
2023-01-08T08:07:21.818Z,7.91
2023-01-08T08:11:26.571Z,7.99
2023-01-08T08:15:29.709Z,8.07
2023-01-08T08:19:32.801Z,7.97
2023-01-08T08:24:04.865Z,8.06
2023-01-08T08:28:12.582Z,8.16
2023-01-08T08:32:15.995Z,8.15
2023-01-08T08:36:19.479Z,8.20
2023-01-08T08:40:23.001Z,8.18
2023-01-08T08:44:27.432Z,8.30
2023-01-08T08:48:30.575Z,8.40
2023-01-08T08:52:34.244Z,8.40
2023-01-08T08:56:37.223Z,8.62
2023-01-08T09:00:43.449Z,9.00
2023-01-08T09:04:46.541Z,9.38
2023-01-08T09:08:49.662Z,9.56
2023-01-08T09:12:54.234Z,9.10
2023-01-08T09:16:58.821Z,8.92
2023-01-08T09:21:06.212Z,8.93
2023-01-08T09:25:09.729Z,9.59
2023-01-08T09:29:13.092Z,10.40
2023-01-08T09:33:17.932Z,10.34
2023-01-08T09:37:23.263Z,10.25
2023-01-08T09:41:30.696Z,10.32
2023-01-08T09:45:39.332Z,11.17
2023-01-08T09:49:47.839Z,10.20
2023-01-08T09:53:56.467Z,10.44
2023-01-08T09:58:03.317Z,10.85
2023-01-08T10:02:14.564Z,10.68
2023-01-08T10:06:19.333Z,10.41
2023-01-08T10:11:47.663Z,10.67
2023-01-08T10:15:51.238Z,10.84
2023-01-08T10:19:54.654Z,11.08
2023-01-08T10:23:59.000Z,10.86
2023-01-08T10:28:04.509Z,10.65
2023-01-08T10:32:12.103Z,10.83
2023-01-08T10:36:16.862Z,10.97
2023-01-08T10:40:26.807Z,10.86
2023-01-08T10:44:30.414Z,10.69
2023-01-08T10:48:38.329Z,10.61
2023-01-08T10:52:41.808Z,10.41
2023-01-08T10:56:46.299Z,10.11
2023-01-08T11:00:49.472Z,9.93
2023-01-08T11:04:53.740Z,9.83
2023-01-08T11:08:59.878Z,9.82
2023-01-08T11:13:07.303Z,9.76
2023-01-08T11:17:12.650Z,9.74
2023-01-08T11:21:21.602Z,9.69
2023-01-08T11:25:31.611Z,9.39
2023-01-08T11:29:42.424Z,9.24
2023-01-08T11:33:48.947Z,9.44
2023-01-08T11:37:53.872Z,9.94
2023-01-08T11:42:22.150Z,10.44
2023-01-08T11:46:34.768Z,10.44
2023-01-08T11:50:45.281Z,10.82
2023-01-08T11:55:06.144Z,11.26
2023-01-08T11:59:18.804Z,11.48
2023-01-08T12:03:31.748Z,11.48
2023-01-08T12:07:43.273Z,11.29
2023-01-08T12:11:53.621Z,11.23
2023-01-08T12:16:05.840Z,11.89
2023-01-08T12:20:22.207Z,12.01
2023-01-08T12:24:44.472Z,11.93
2023-01-08T12:29:08.447Z,12.37
2023-01-08T12:33:21.213Z,12.40
2023-01-08T12:37:30.849Z,12.63
2023-01-08T12:41:36.912Z,12.52
2023-01-08T12:45:44.784Z,12.97
2023-01-08T12:49:52.673Z,13.54
2023-01-08T12:54:04.136Z,12.97
2023-01-08T12:58:22.488Z,12.59
2023-01-08T13:02:37.488Z,12.99
2023-01-08T13:06:51.349Z,12.60
2023-01-08T13:10:56.708Z,13.09
2023-01-08T13:14:59.889Z,12.81
2023-01-08T13:19:04.687Z,12.76
2023-01-08T13:23:08.090Z,12.48
2023-01-08T13:27:28.457Z,11.86
2023-01-08T13:31:40.990Z,11.15
2023-01-08T13:35:44.138Z,10.80
2023-01-08T13:39:47.213Z,11.24
2023-01-08T13:43:57.813Z,11.75
2023-01-08T13:48:01.776Z,12.64
2023-01-08T13:52:05.380Z,12.99
2023-01-08T13:56:10.769Z,13.05
2023-01-08T14:00:25.045Z,12.24
2023-01-08T14:04:28.639Z,12.06
2023-01-08T14:08:31.670Z,11.01
2023-01-08T14:12:36.264Z,10.64
2023-01-08T14:16:41.869Z,10.53
2023-01-08T14:20:49.963Z,10.47
2023-01-08T14:24:56.704Z,10.48
2023-01-08T14:29:01.648Z,10.42
2023-01-08T14:33:13.593Z,10.63
2023-01-08T14:37:18.019Z,10.76
2023-01-08T14:41:47.614Z,10.64
2023-01-08T14:45:54.738Z,10.48
2023-01-08T14:49:59.315Z,10.35
2023-01-08T14:54:05.706Z,10.24
2023-01-08T14:58:16.102Z,10.24
2023-01-08T15:02:27.116Z,10.23
2023-01-08T15:06:34.139Z,10.34
2023-01-08T15:10:40.689Z,10.20
2023-01-08T15:14:44.533Z,10.07
2023-01-08T15:18:49.868Z,9.98
2023-01-08T15:22:54.284Z,9.90
2023-01-08T15:26:58.482Z,9.85
2023-01-08T15:31:01.504Z,9.91
2023-01-08T15:35:15.336Z,9.92
2023-01-08T15:39:19.768Z,9.93
2023-01-08T15:43:23.861Z,9.84
2023-01-08T15:47:27.003Z,9.80
2023-01-08T15:51:32.707Z,9.77
2023-01-08T15:55:37.727Z,9.77
2023-01-08T15:59:41.018Z,9.74
2023-01-08T16:03:44.905Z,9.74
2023-01-08T16:07:48.138Z,9.68
2023-01-08T16:11:52.702Z,9.68
2023-01-08T16:15:55.948Z,9.63
2023-01-08T16:19:58.970Z,9.54
2023-01-08T16:24:02.062Z,9.44
2023-01-08T16:28:06.746Z,9.34
2023-01-08T16:32:09.854Z,9.40
2023-01-08T16:36:13.017Z,9.28
2023-01-08T16:40:16.821Z,9.17
2023-01-08T16:44:22.672Z,9.02
2023-01-08T16:48:25.690Z,9.02
2023-01-08T16:52:28.780Z,8.80
2023-01-08T16:56:32.030Z,8.55
2023-01-08T17:00:37.126Z,8.48
2023-01-08T17:04:40.376Z,8.44
2023-01-08T17:08:44.086Z,8.40
2023-01-08T17:12:47.200Z,8.43
2023-01-08T17:16:51.614Z,8.41
2023-01-08T17:20:55.569Z,8.41
2023-01-08T17:24:58.638Z,8.31
2023-01-08T17:29:01.851Z,8.42
2023-01-08T17:33:06.219Z,8.35
2023-01-08T17:37:09.378Z,8.34
2023-01-08T17:41:32.498Z,8.24
2023-01-08T17:45:35.666Z,8.32
2023-01-08T17:49:40.261Z,8.25
2023-01-08T17:53:43.279Z,8.22
2023-01-08T17:57:46.473Z,8.22
2023-01-08T18:01:50.206Z,8.21
2023-01-08T18:05:54.971Z,8.19
2023-01-08T18:09:58.034Z,8.16
2023-01-08T18:14:03.363Z,8.09
2023-01-08T18:18:06.838Z,8.16
2023-01-08T18:22:12.239Z,8.19
2023-01-08T18:26:17.568Z,8.06
2023-01-08T18:30:20.630Z,8.16
2023-01-08T18:34:23.784Z,8.24
2023-01-08T18:38:28.226Z,8.28
2023-01-08T18:42:32.797Z,8.16
2023-01-08T18:46:36.249Z,7.99
2023-01-08T18:50:40.421Z,7.93
2023-01-08T18:54:44.832Z,7.83
2023-01-08T18:58:47.902Z,7.83
2023-01-08T19:02:52.332Z,7.66
2023-01-08T19:06:55.524Z,7.59
2023-01-08T19:11:04.253Z,7.47
2023-01-08T19:15:08.354Z,7.44
2023-01-08T19:19:11.457Z,7.40
2023-01-08T19:23:15.015Z,7.39
2023-01-08T19:27:19.402Z,7.29
2023-01-08T19:31:22.562Z,7.27
2023-01-08T19:35:25.637Z,7.32
2023-01-08T19:39:29.919Z,7.46
2023-01-08T19:43:43.072Z,7.52
2023-01-08T19:47:46.368Z,7.60
2023-01-08T19:51:49.413Z,7.64
2023-01-08T19:55:52.456Z,7.69
2023-01-08T19:59:56.983Z,7.75
2023-01-08T20:04:00.130Z,7.83
2023-01-08T20:08:03.291Z,7.90
2023-01-08T20:12:07.293Z,7.96
2023-01-08T20:16:14.051Z,8.02
2023-01-08T20:20:17.627Z,8.05
2023-01-08T20:24:20.717Z,8.05
2023-01-08T20:28:23.779Z,8.03
2023-01-08T20:32:28.177Z,7.96
2023-01-08T20:36:33.823Z,7.94
2023-01-08T20:40:37.856Z,7.93
2023-01-08T20:44:41.073Z,7.96
2023-01-08T20:48:48.567Z,8.02
2023-01-08T20:52:51.659Z,8.09
2023-01-08T20:56:56.610Z,8.15
2023-01-08T21:01:06.104Z,8.24
2023-01-08T21:05:11.047Z,8.28
2023-01-08T21:09:16.638Z,8.30
2023-01-08T21:13:19.731Z,8.36
2023-01-08T21:17:22.806Z,8.31
2023-01-08T21:21:32.486Z,8.29
2023-01-08T21:25:36.010Z,8.27
2023-01-08T21:29:39.056Z,8.18
2023-01-08T21:33:43.119Z,8.20
2023-01-08T21:37:47.839Z,8.23
2023-01-08T21:42:08.178Z,8.27
2023-01-08T21:46:11.665Z,8.27
2023-01-08T21:50:14.870Z,8.24
2023-01-08T21:54:19.203Z,8.13
2023-01-08T21:58:23.235Z,7.94
2023-01-08T22:02:26.501Z,7.92
2023-01-08T22:06:29.462Z,7.95
2023-01-08T22:10:33.883Z,7.84
2023-01-08T22:14:36.927Z,7.74
2023-01-08T22:18:39.918Z,7.77
2023-01-08T22:22:47.061Z,7.66
2023-01-08T22:26:51.592Z,7.57
2023-01-08T22:30:54.566Z,7.58
2023-01-08T22:34:57.816Z,7.56
2023-01-08T22:39:00.937Z,7.60
2023-01-08T22:43:05.285Z,7.63
2023-01-08T22:47:10.145Z,7.69
2023-01-08T22:51:13.338Z,7.66
2023-01-08T22:55:16.555Z,7.61
2023-01-08T22:59:21.365Z,7.60
2023-01-08T23:03:24.499Z,7.60
2023-01-08T23:07:27.468Z,7.67
2023-01-08T23:11:31.302Z,7.73
2023-01-08T23:15:35.716Z,7.78
2023-01-08T23:19:39.192Z,7.93
2023-01-08T23:23:42.250Z,7.95
2023-01-08T23:27:45.686Z,8.01
2023-01-08T23:31:50.515Z,8.02
2023-01-08T23:35:53.779Z,8.00
2023-01-08T23:39:56.761Z,7.97
2023-01-08T23:44:01.100Z,7.92
2023-01-08T23:48:07.803Z,7.92
2023-01-08T23:52:11.308Z,7.89
2023-01-08T23:56:14.852Z,7.83
